Time;durP1;ratioP1;P1;durP2;ratioP2;P2;SDS_P1;SDS_P2;PMS_P1;PMS_P2;Temp;Humidity;BMP_temperature;BMP_pressure;BME280_temperature;BME280_humidity;BME280_pressure;Samples;Min_cycle;Max_cycle;Signal;HPM_P1;HPM_P2
2022/11/26 00:00:28;;;;;;;14.70;6.65;;;7.80;99.90;;;;;;4993161;28;20038;-66
2022/11/26 00:02:54;;;;;;;17.20;6.72;;;7.70;99.90;;;;;;4992729;28;20031;-66
2022/11/26 00:05:20;;;;;;;15.60;7.07;;;7.80;99.90;;;;;;4992419;28;20077;-66
2022/11/26 00:07:57;;;;;;;20.80;7.45;;;7.80;99.90;;;;;;4992297;28;20054;-66
2022/11/26 00:10:28;;;;;;;13.00;6.05;;;7.80;99.90;;;;;;4993623;28;20105;-66
2022/11/26 00:12:55;;;;;;;19.67;7.53;;;7.80;99.90;;;;;;4992951;28;20054;-66
2022/11/26 00:15:29;;;;;;;16.45;5.75;;;7.70;99.90;;;;;;4993643;28;20076;-66
2022/11/26 00:17:55;;;;;;;15.07;6.85;;;7.80;99.90;;;;;;4992308;28;20023;-66
2022/11/26 00:20:26;;;;;;;14.07;5.22;;;7.90;99.90;;;;;;4993603;28;20026;-66
2022/11/26 00:23:37;;;;;;;16.60;5.93;;;8.00;99.90;;;;;;4994009;28;20023;-66
2022/11/26 00:26:09;;;;;;;11.23;5.97;;;8.10;99.90;;;;;;4992400;28;20270;-66
2022/11/26 00:28:37;;;;;;;14.98;6.25;;;8.10;99.90;;;;;;4993855;28;20057;-66
2022/11/26 00:31:12;;;;;;;16.80;6.60;;;8.10;99.90;;;;;;4992291;28;20045;-66
2022/11/26 00:33:38;;;;;;;15.65;6.32;;;8.20;99.90;;;;;;4993285;28;20069;-66
2022/11/26 00:36:24;;;;;;;17.45;6.20;;;8.10;99.90;;;;;;4992222;28;20050;-66
2022/11/26 00:39:05;;;;;;;14.18;5.55;;;8.10;99.90;;;;;;4996185;28;20027;-66
2022/11/26 00:41:34;;;;;;;15.77;5.30;;;8.20;99.90;;;;;;4996098;28;20081;-66
2022/11/26 00:44:00;;;;;;;12.45;5.70;;;8.20;99.90;;;;;;4997467;28;20049;-66
2022/11/26 00:46:26;;;;;;;20.85;6.47;;;8.10;99.90;;;;;;4995969;28;20030;-66
2022/11/26 00:48:51;;;;;;;15.63;6.35;;;7.80;99.90;;;;;;4997587;28;20036;-66
2022/11/26 00:51:20;;;;;;;27.38;7.25;;;7.70;99.90;;;;;;4995837;28;20141;-66
2022/11/26 00:53:48;;;;;;;22.77;6.78;;;7.50;99.90;;;;;;4996962;28;20054;-66
2022/11/26 00:56:17;;;;;;;12.18;6.65;;;7.50;99.90;;;;;;4995685;28;20018;-66
2022/11/26 00:58:44;;;;;;;22.67;6.55;;;7.40;99.90;;;;;;4997223;28;20026;-66
2022/11/26 01:01:12;;;;;;;16.95;5.40;;;7.40;99.90;;;;;;4995705;28;20027;-66
2022/11/26 01:03:42;;;;;;;17.23;6.28;;;7.60;99.90;;;;;;4996377;28;20057;-66
2022/11/26 01:06:14;;;;;;;20.98;6.18;;;7.80;99.90;;;;;;4996879;28;20037;-66
2022/11/26 01:08:40;;;;;;;16.10;5.28;;;7.90;99.90;;;;;;4995532;28;20111;-66
2022/11/26 01:11:05;;;;;;;9.55;5.28;;;7.80;99.90;;;;;;4995468;28;20125;-66
2022/11/26 01:13:32;;;;;;;14.00;5.72;;;7.80;99.90;;;;;;4995368;28;20034;-66
2022/11/26 01:16:01;;;;;;;16.92;5.63;;;7.60;99.90;;;;;;4995400;28;20126;-66
2022/11/26 01:18:27;;;;;;;15.10;5.53;;;7.60;99.90;;;;;;4995540;28;20023;-66
2022/11/26 01:20:53;;;;;;;14.02;5.45;;;7.50;99.90;;;;;;4995305;28;20030;-66
2022/11/26 01:23:19;;;;;;;15.23;6.45;;;7.50;99.90;;;;;;4995297;28;20030;-66
2022/11/26 01:25:46;;;;;;;16.55;5.80;;;7.40;99.90;;;;;;4995561;28;20033;-66
2022/11/26 01:28:17;;;;;;;15.27;5.70;;;7.40;99.90;;;;;;4995599;28;20108;-66
2022/11/26 01:30:43;;;;;;;14.70;5.83;;;7.30;99.90;;;;;;4995137;28;20030;-66
2022/11/26 01:33:08;;;;;;;13.13;5.28;;;7.30;99.90;;;;;;4996133;28;20027;-66
2022/11/26 01:35:34;;;;;;;14.35;5.50;;;7.20;99.90;;;;;;4994964;28;20041;-66
2022/11/26 01:38:00;;;;;;;12.20;5.53;;;7.20;99.90;;;;;;4994844;28;20065;-66
2022/11/26 01:40:25;;;;;;;19.42;6.53;;;7.20;99.90;;;;;;4996528;28;20046;-66
2022/11/26 01:42:57;;;;;;;11.07;5.18;;;7.20;99.90;;;;;;4994907;28;20058;-66
2022/11/26 01:45:23;;;;;;;18.30;6.85;;;7.10;99.90;;;;;;4996173;28;20034;-67
2022/11/26 01:47:49;;;;;;;18.15;5.55;;;7.30;99.90;;;;;;4994794;28;20112;-66
2022/11/26 01:50:29;;;;;;;18.88;5.43;;;7.40;99.90;;;;;;4993709;28;20034;-67
2022/11/26 01:53:02;;;;;;;13.02;4.80;;;7.50;99.90;;;;;;4996126;28;20062;-66
2022/11/26 01:55:47;;;;;;;10.70;4.50;;;7.60;99.90;;;;;;4996148;28;20034;-66
2022/11/26 01:58:18;;;;;;;12.00;4.68;;;7.70;99.90;;;;;;4996373;28;20117;-65
2022/11/26 02:00:44;;;;;;;14.48;4.85;;;7.80;99.90;;;;;;4995960;28;20077;-65
2022/11/26 02:03:10;;;;;;;24.17;7.70;;;7.80;99.90;;;;;;4994653;28;20035;-65
2022/11/26 02:05:42;;;;;;;16.70;5.13;;;7.80;99.90;;;;;;4994431;28;20022;-65
2022/11/26 02:08:09;;;;;;;14.85;6.03;;;7.70;99.90;;;;;;4994432;28;20496;-65
2022/11/26 02:10:35;;;;;;;18.45;5.93;;;7.70;99.90;;;;;;4995621;28;20026;-65
2022/11/26 02:13:01;;;;;;;14.18;6.35;;;7.60;99.90;;;;;;4995784;28;20044;-64
2022/11/26 02:15:33;;;;;;;16.42;5.78;;;7.60;99.90;;;;;;4994303;28;20478;-65
2022/11/26 02:18:06;;;;;;;18.77;5.60;;;7.60;99.90;;;;;;4995657;28;20042;-65
2022/11/26 02:21:00;;;;;;;30.42;6.80;;;7.50;99.90;;;;;;4994060;28;20031;-64
2022/11/26 02:24:03;;;;;;;15.00;6.43;;;7.30;99.90;;;;;;4995588;28;20022;-64
2022/11/26 02:26:45;;;;;;;14.77;5.63;;;7.20;99.90;;;;;;4993974;28;20058;-65
2022/11/26 02:29:39;;;;;;;10.80;5.57;;;7.00;99.90;;;;;;4995586;28;20105;-65
2022/11/26 02:32:12;;;;;;;11.85;5.38;;;6.90;99.90;;;;;;4994225;28;20077;-64
2022/11/26 02:35:01;;;;;;;12.20;5.70;;;6.90;99.90;;;;;;4993866;28;20026;-64
2022/11/26 02:37:34;;;;;;;17.95;6.07;;;6.90;99.90;;;;;;4993764;28;20026;-65
2022/11/26 02:40:00;;;;;;;10.40;5.05;;;7.10;99.90;;;;;;4995353;28;20028;-65
2022/11/26 02:42:29;;;;;;;16.75;6.30;;;7.30;99.90;;;;;;4994029;28;20109;-65
2022/11/26 02:45:01;;;;;;;18.05;6.03;;;7.30;99.90;;;;;;4994924;28;20085;-65
2022/11/26 02:47:28;;;;;;;18.05;6.22;;;7.30;99.90;;;;;;4993571;28;20085;-65
2022/11/26 02:49:56;;;;;;;12.73;5.75;;;7.40;99.90;;;;;;4993752;28;20031;-65
2022/11/26 02:52:22;;;;;;;20.58;6.53;;;7.40;99.90;;;;;;4994849;28;20030;-65
2022/11/26 02:54:49;;;;;;;12.77;6.00;;;7.30;99.90;;;;;;4993427;28;20038;-65
2022/11/26 02:57:19;;;;;;;14.63;5.63;;;7.10;99.90;;;;;;4993535;28;20096;-65
2022/11/26 02:59:46;;;;;;;9.02;5.25;;;6.60;99.90;;;;;;4994324;28;20054;-64
2022/11/26 03:02:20;;;;;;;13.65;5.78;;;6.30;99.90;;;;;;4993130;28;20018;-64
2022/11/26 03:04:49;;;;;;;12.60;4.72;;;6.10;99.90;;;;;;4993527;28;20077;-64
2022/11/26 03:07:17;;;;;;;16.15;5.07;;;6.10;99.90;;;;;;4993573;28;20033;-65
2022/11/26 03:09:57;;;;;;;14.77;5.32;;;6.00;99.90;;;;;;4993316;28;20086;-65
2022/11/26 03:12:23;;;;;;;12.07;5.28;;;6.10;99.90;;;;;;4994828;28;20022;-64
2022/11/26 03:14:49;;;;;;;14.05;4.97;;;6.10;99.90;;;;;;4994607;28;20062;-65
2022/11/26 03:17:15;;;;;;;14.30;5.00;;;6.10;99.90;;;;;;4994294;28;20057;-65
2022/11/26 03:19:41;;;;;;;14.32;6.05;;;6.20;99.90;;;;;;4993017;28;20547;-64
2022/11/26 03:22:06;;;;;;;16.60;6.07;;;6.40;99.90;;;;;;4993258;28;20019;-64
2022/11/26 03:24:32;;;;;;;16.55;6.05;;;6.50;99.90;;;;;;4992925;28;20022;-65
2022/11/26 03:26:58;;;;;;;12.38;5.45;;;6.60;99.90;;;;;;4994145;28;20044;-64
2022/11/26 03:29:24;;;;;;;14.38;6.05;;;6.70;99.90;;;;;;4994147;28;20030;-65
2022/11/26 03:31:49;;;;;;;13.90;5.63;;;6.80;99.90;;;;;;4992844;28;20041;-65
2022/11/26 03:34:15;;;;;;;16.80;5.50;;;6.90;99.90;;;;;;4994044;28;20109;-65
2022/11/26 03:36:41;;;;;;;22.70;6.50;;;6.90;99.90;;;;;;4994306;28;20061;-64
2022/11/26 03:39:07;;;;;;;15.00;5.50;;;7.00;99.90;;;;;;4993647;28;20026;-65
2022/11/26 03:41:32;;;;;;;12.00;5.20;;;7.00;99.90;;;;;;4994105;28;20033;-65
2022/11/26 03:43:58;;;;;;;11.82;5.43;;;6.90;99.90;;;;;;4993296;28;20113;-64
2022/11/26 03:46:24;;;;;;;11.88;5.63;;;6.90;99.90;;;;;;4993759;28;20026;-65
2022/11/26 03:48:49;;;;;;;12.82;5.07;;;6.90;99.90;;;;;;4993413;28;20046;-65
2022/11/26 03:51:15;;;;;;;14.00;5.35;;;6.90;99.90;;;;;;4992673;28;20022;-64
2022/11/26 03:53:40;;;;;;;14.65;6.32;;;6.80;99.90;;;;;;4992594;28;20078;-64
2022/11/26 03:56:06;;;;;;;11.88;5.05;;;6.70;99.90;;;;;;4992824;28;20498;-64
2022/11/26 03:58:32;;;;;;;10.60;5.72;;;6.70;99.90;;;;;;4992905;28;20030;-64
2022/11/26 04:00:58;;;;;;;14.05;5.95;;;6.70;99.90;;;;;;4993470;28;20034;-64
2022/11/26 04:03:23;;;;;;;43.67;7.22;;;6.50;99.90;;;;;;4992409;28;20032;-64
2022/11/26 04:05:49;;;;;;;10.02;6.75;;;6.30;99.90;;;;;;4994000;28;20109;-64
2022/11/26 04:08:14;;;;;;;18.27;5.43;;;6.00;99.90;;;;;;4992398;28;20026;-64
2022/11/26 04:10:40;;;;;;;11.35;5.72;;;5.80;99.90;;;;;;4992876;28;20049;-64
2022/11/26 04:13:06;;;;;;;17.83;5.68;;;5.80;99.90;;;;;;4995313;28;20042;-65
2022/11/26 04:15:32;;;;;;;17.75;6.28;;;5.80;99.90;;;;;;4997060;28;20026;-65
2022/11/26 04:17:58;;;;;;;24.70;6.22;;;5.80;99.90;;;;;;4996764;28;20034;-64
2022/11/26 04:20:23;;;;;;;16.55;6.18;;;5.70;99.90;;;;;;4997648;28;20041;-65
2022/11/26 04:22:49;;;;;;;28.70;7.70;;;5.80;99.90;;;;;;4996838;28;20025;-64
2022/11/26 04:25:14;;;;;;;33.58;8.32;;;5.70;99.90;;;;;;4997495;28;20027;-64
2022/11/26 04:27:40;;;;;;;47.95;7.95;;;5.70;99.90;;;;;;4996609;28;20528;-64
2022/11/26 04:30:07;;;;;;;88.55;10.85;;;5.60;99.90;;;;;;4996388;28;20028;-64
2022/11/26 04:32:33;;;;;;;91.18;9.73;;;5.40;99.90;;;;;;4996434;28;20023;-64
2022/11/26 04:34:58;;;;;;;148.70;11.63;;;5.30;99.90;;;;;;4997574;28;20038;-64
2022/11/26 04:37:24;;;;;;;111.63;12.98;;;5.30;99.90;;;;;;4996687;28;20386;-64
2022/11/26 04:39:49;;;;;;;69.38;10.02;;;5.30;99.90;;;;;;4996567;28;20125;-64
2022/11/26 04:42:15;;;;;;;28.33;6.93;;;5.30;99.90;;;;;;4997750;28;20034;-64
2022/11/26 04:44:40;;;;;;;53.35;9.55;;;5.50;99.90;;;;;;4995857;28;20084;-64
2022/11/26 04:47:06;;;;;;;41.67;7.78;;;5.60;99.90;;;;;;4995685;28;20062;-64
2022/11/26 04:49:31;;;;;;;38.80;7.25;;;5.60;99.90;;;;;;4996157;28;20477;-64
2022/11/26 04:51:57;;;;;;;48.10;7.50;;;5.60;99.90;;;;;;4996748;28;20184;-64
2022/11/26 04:54:23;;;;;;;33.47;6.93;;;5.60;99.90;;;;;;4995980;28;20034;-64
2022/11/26 04:56:48;;;;;;;88.18;10.23;;;5.70;99.90;;;;;;4996445;28;20065;-64
2022/11/26 04:59:14;;;;;;;96.60;10.73;;;5.60;99.90;;;;;;4995629;28;20025;-64
2022/11/26 05:01:40;;;;;;;41.22;7.32;;;5.40;99.90;;;;;;4995926;28;20053;-64
2022/11/26 05:04:05;;;;;;;26.67;6.43;;;5.40;99.90;;;;;;4996839;28;20034;-64
2022/11/26 05:06:31;;;;;;;69.47;8.95;;;5.30;99.90;;;;;;4997031;28;20034;-64
2022/11/26 05:08:56;;;;;;;103.78;9.98;;;5.20;99.90;;;;;;4995539;28;20027;-64
2022/11/26 05:11:22;;;;;;;103.95;12.75;;;5.00;99.90;;;;;;4996078;28;20022;-64
2022/11/26 05:13:48;;;;;;;66.95;8.63;;;4.80;99.90;;;;;;4995324;28;20142;-64
2022/11/26 05:16:13;;;;;;;37.22;6.72;;;4.80;99.90;;;;;;4996028;28;20029;-65
2022/11/26 05:18:39;;;;;;;40.15;7.15;;;5.00;99.90;;;;;;4995326;28;20046;-64
2022/11/26 05:21:05;;;;;;;60.60;7.55;;;5.10;99.90;;;;;;4996088;28;20069;-64
2022/11/26 05:23:31;;;;;;;35.08;7.53;;;5.00;99.90;;;;;;4995490;28;20073;-64
2022/11/26 05:25:56;;;;;;;25.58;6.95;;;5.10;99.90;;;;;;4996393;28;20065;-64
2022/11/26 05:28:22;;;;;;;64.65;8.90;;;5.30;99.90;;;;;;4995054;28;20026;-64
2022/11/26 05:30:47;;;;;;;70.55;9.23;;;5.20;99.90;;;;;;4996283;28;20030;-64
2022/11/26 05:33:13;;;;;;;87.00;10.40;;;5.30;99.90;;;;;;4995242;28;20052;-64
2022/11/26 05:35:38;;;;;;;81.05;9.90;;;5.20;99.90;;;;;;4996263;28;20030;-64
2022/11/26 05:38:04;;;;;;;56.70;7.75;;;5.30;99.90;;;;;;4994983;28;20025;-64
2022/11/26 05:40:30;;;;;;;104.20;10.85;;;5.40;99.90;;;;;;4994919;28;20077;-64
2022/11/26 05:42:55;;;;;;;60.95;8.05;;;5.40;99.90;;;;;;4996406;28;20034;-64
2022/11/26 05:45:21;;;;;;;79.95;10.50;;;5.40;99.90;;;;;;4994795;28;20117;-64
2022/11/26 05:47:46;;;;;;;40.78;7.60;;;5.50;99.90;;;;;;4995035;28;20110;-64
2022/11/26 05:50:13;;;;;;;109.40;12.25;;;5.60;99.90;;;;;;4995061;28;20026;-64
2022/11/26 05:52:39;;;;;;;62.55;7.72;;;5.40;99.90;;;;;;4994562;28;20026;-64
2022/11/26 05:55:05;;;;;;;104.40;10.65;;;5.40;99.90;;;;;;4995452;28;20022;-64
2022/11/26 05:57:31;;;;;;;63.28;6.93;;;5.40;99.90;;;;;;4994731;28;20494;-64
2022/11/26 05:59:56;;;;;;;78.35;8.60;;;5.40;99.90;;;;;;4994428;28;20029;-64
2022/11/26 06:02:22;;;;;;;47.90;7.70;;;5.50;99.90;;;;;;4994838;28;20022;-64
2022/11/26 06:04:47;;;;;;;83.07;8.98;;;5.40;99.90;;;;;;4995795;28;20087;-64
2022/11/26 06:07:13;;;;;;;73.15;9.25;;;5.50;99.90;;;;;;4994742;28;20038;-64
2022/11/26 06:09:39;;;;;;;63.65;9.68;;;5.60;99.90;;;;;;4994504;28;20026;-64
2022/11/26 06:12:05;;;;;;;72.43;8.80;;;5.60;99.90;;;;;;4994407;28;20023;-64
2022/11/26 06:14:30;;;;;;;48.50;7.50;;;5.60;99.90;;;;;;4995481;28;20038;-64
2022/11/26 06:16:56;;;;;;;67.82;8.27;;;5.60;99.90;;;;;;4994184;28;20065;-65
2022/11/26 06:19:22;;;;;;;49.45;8.73;;;5.50;99.90;;;;;;4994293;28;20042;-64
2022/11/26 06:21:47;;;;;;;36.88;5.95;;;5.50;99.90;;;;;;4994448;28;20390;-64
2022/11/26 06:24:13;;;;;;;68.65;8.55;;;5.50;99.90;;;;;;4994244;28;20094;-64
2022/11/26 06:26:39;;;;;;;46.58;7.10;;;5.40;99.90;;;;;;4995144;28;20094;-64
2022/11/26 06:29:04;;;;;;;77.55;10.52;;;5.40;99.90;;;;;;4995264;28;20026;-65
2022/11/26 06:31:31;;;;;;;51.95;7.88;;;5.30;99.90;;;;;;4995274;28;20037;-64
2022/11/26 06:33:57;;;;;;;67.10;7.93;;;5.40;99.90;;;;;;4995120;28;20022;-64
2022/11/26 06:36:23;;;;;;;66.15;9.82;;;5.40;99.90;;;;;;4993434;28;20022;-64
2022/11/26 06:38:49;;;;;;;64.25;9.00;;;5.50;99.90;;;;;;4993732;28;20046;-65
2022/11/26 06:41:14;;;;;;;54.33;9.55;;;5.60;99.90;;;;;;4995001;28;20033;-64
2022/11/26 06:43:40;;;;;;;14.23;6.13;;;5.60;99.90;;;;;;4993702;28;20026;-65
2022/11/26 06:46:08;;;;;;;40.90;7.60;;;5.70;99.90;;;;;;4994964;28;20030;-65
2022/11/26 06:48:35;;;;;;;62.63;7.85;;;5.80;99.90;;;;;;4993484;28;20121;-65
2022/11/26 06:51:14;;;;;;;62.72;7.13;;;5.80;99.90;;;;;;4995123;28;20066;-65
2022/11/26 06:53:40;;;;;;;27.98;6.63;;;5.80;99.90;;;;;;4994779;28;20027;-65
2022/11/26 06:56:10;;;;;;;39.42;6.57;;;5.80;99.90;;;;;;4993552;28;20053;-64
2022/11/26 06:58:36;;;;;;;55.60;6.72;;;5.90;99.90;;;;;;4993361;28;20026;-64
2022/11/26 07:01:15;;;;;;;56.38;7.57;;;5.90;99.90;;;;;;4993744;28;20031;-64
2022/11/26 07:03:40;;;;;;;83.40;9.23;;;5.90;99.90;;;;;;4993321;28;20030;-64
2022/11/26 07:06:15;;;;;;;84.25;8.60;;;5.80;99.90;;;;;;4993583;28;20038;-64
2022/11/26 07:08:41;;;;;;;54.20;7.65;;;5.60;99.90;;;;;;4994462;28;20080;-64
2022/11/26 07:11:06;;;;;;;48.10;7.82;;;5.40;99.90;;;;;;4993317;28;20026;-64
2022/11/26 07:13:32;;;;;;;40.65;9.07;;;5.30;99.90;;;;;;4993033;28;20033;-64
2022/11/26 07:16:01;;;;;;;80.43;10.32;;;5.30;99.90;;;;;;4994291;28;20033;-64
2022/11/26 07:18:27;;;;;;;16.02;6.38;;;5.30;99.90;;;;;;4993309;28;20115;-64
2022/11/26 07:20:53;;;;;;;29.70;6.60;;;5.40;99.90;;;;;;4993019;28;20058;-64
2022/11/26 07:23:18;;;;;;;37.58;7.13;;;5.60;99.90;;;;;;4994258;28;20038;-65
2022/11/26 07:25:44;;;;;;;24.13;6.97;;;5.80;99.90;;;;;;4994466;28;20027;-64
2022/11/26 07:28:09;;;;;;;24.88;6.82;;;5.90;99.90;;;;;;4992746;28;20026;-64
2022/11/26 07:30:35;;;;;;;26.80;6.05;;;6.00;99.90;;;;;;4994536;28;20026;-65
2022/11/26 07:33:00;;;;;;;16.10;5.85;;;5.90;99.90;;;;;;4992729;28;20037;-65
2022/11/26 07:35:26;;;;;;;24.73;6.43;;;6.00;99.90;;;;;;4993413;28;20030;-65
2022/11/26 07:37:52;;;;;;;36.72;7.00;;;6.10;99.90;;;;;;4992626;28;20018;-65
2022/11/26 07:40:18;;;;;;;23.98;6.38;;;6.10;99.90;;;;;;4993596;28;20145;-65
2022/11/26 07:42:43;;;;;;;20.65;5.20;;;6.10;99.90;;;;;;4994038;28;20061;-65
2022/11/26 07:45:09;;;;;;;18.20;5.00;;;6.10;99.90;;;;;;4992612;28;20034;-64
2022/11/26 07:47:35;;;;;;;50.67;8.88;;;6.10;99.90;;;;;;4991813;28;20447;-65
2022/11/26 07:50:01;;;;;;;17.90;5.47;;;6.20;99.90;;;;;;4993687;28;20046;-64
2022/11/26 07:52:26;;;;;;;21.92;6.90;;;6.20;99.90;;;;;;4994167;28;20069;-65
2022/11/26 07:54:52;;;;;;;36.65;5.75;;;6.10;99.90;;;;;;4993057;28;20362;-65
2022/11/26 07:57:19;;;;;;;25.83;4.72;;;6.10;99.90;;;;;;4992417;28;20574;-64
2022/11/26 07:59:45;;;;;;;72.45;8.50;;;6.00;99.90;;;;;;5032742;23;20091;-68
2022/11/26 08:02:14;;;;;;;31.10;6.13;;;6.00;99.90;;;;;;5012231;28;20108;-68
2022/11/26 08:04:40;;;;;;;44.60;7.20;;;6.00;99.90;;;;;;5012438;28;20384;-68
2022/11/26 08:07:05;;;;;;;17.58;5.18;;;6.00;99.90;;;;;;5012113;28;20022;-68
2022/11/26 08:09:31;;;;;;;29.33;5.88;;;5.90;99.90;;;;;;5028553;28;20022;-68
2022/11/26 08:11:57;;;;;;;60.63;6.65;;;5.90;99.90;;;;;;5012820;28;20076;-68
2022/11/26 08:14:22;;;;;;;81.80;8.98;;;5.70;99.90;;;;;;5013596;28;20037;-68
2022/11/26 08:16:48;;;;;;;20.98;5.93;;;5.60;99.90;;;;;;5013338;28;20030;-67
2022/11/26 08:19:13;;;;;;;36.42;5.85;;;5.50;99.90;;;;;;5013182;28;20030;-67
2022/11/26 08:21:40;;;;;;;20.00;4.80;;;5.50;99.90;;;;;;5013220;28;20022;-67
2022/11/26 08:24:06;;;;;;;68.13;6.55;;;5.40;99.90;;;;;;5012156;28;20032;-67
2022/11/26 08:26:32;;;;;;;43.47;5.70;;;5.40;99.90;;;;;;5012016;28;20580;-67
2022/11/26 08:28:58;;;;;;;32.83;5.97;;;5.30;99.90;;;;;;5012698;28;20054;-67
2022/11/26 08:31:26;;;;;;;14.63;4.75;;;5.20;99.90;;;;;;5013189;28;20033;-67
2022/11/26 08:33:54;;;;;;;33.50;5.53;;;5.30;99.90;;;;;;5028344;28;20026;-67
2022/11/26 08:36:20;;;;;;;12.25;4.68;;;5.40;99.90;;;;;;5012308;28;20022;-67
2022/11/26 08:38:45;;;;;;;27.98;6.50;;;5.50;99.90;;;;;;5011921;28;20022;-67
2022/11/26 08:41:12;;;;;;;36.78;6.47;;;5.60;99.90;;;;;;5012069;28;20105;-67
2022/11/26 08:43:39;;;;;;;21.25;5.72;;;5.60;99.90;;;;;;5011711;28;20030;-67
2022/11/26 08:46:05;;;;;;;10.90;4.53;;;5.60;99.90;;;;;;5011719;28;20038;-68
2022/11/26 08:48:31;;;;;;;10.43;4.88;;;5.70;99.90;;;;;;5011640;28;20043;-68
2022/11/26 08:51:03;;;;;;;45.30;7.15;;;5.80;99.90;;;;;;5013028;28;20157;-68
2022/11/26 08:53:29;;;;;;;14.60;6.45;;;5.70;99.90;;;;;;5012188;28;20045;-67
2022/11/26 08:56:13;;;;;;;41.83;6.20;;;5.70;99.90;;;;;;5011666;28;20022;-67
2022/11/26 08:58:41;;;;;;;31.67;6.65;;;5.70;99.90;;;;;;5012017;28;20045;-67
2022/11/26 09:01:16;;;;;;;67.85;7.75;;;5.60;99.90;;;;;;5015370;28;20068;-67
2022/11/26 09:03:42;;;;;;;23.90;5.75;;;5.50;99.90;;;;;;5016862;28;20057;-67
2022/11/26 09:06:09;;;;;;;33.67;6.88;;;5.50;99.90;;;;;;5032814;28;20025;-67
2022/11/26 09:09:23;;;;;;;16.63;5.50;;;5.60;99.90;;;;;;5015135;28;20060;-67
2022/11/26 09:11:25;;;;;;;10.27;4.18;;;5.80;99.90;;;;;;5009596;28;20060;-67
2022/11/26 09:13:50;;;;;;;8.68;4.05;;;6.00;99.90;;;;;;5015528;28;20053;-67
2022/11/26 09:16:16;;;;;;;14.02;4.57;;;6.20;99.90;;;;;;5015434;28;20103;-67
2022/11/26 09:18:41;;;;;;;10.20;4.43;;;6.40;99.90;;;;;;5016312;28;20033;-67
2022/11/26 09:21:07;;;;;;;12.75;4.40;;;6.50;99.90;;;;;;5017516;28;20029;-67
2022/11/26 09:23:32;;;;;;;15.63;6.13;;;6.50;99.90;;;;;;5016403;28;20030;-67
2022/11/26 09:25:58;;;;;;;20.33;6.57;;;6.40;99.90;;;;;;5016198;28;20025;-67
2022/11/26 09:28:23;;;;;;;17.75;5.32;;;6.40;99.90;;;;;;5015167;28;20022;-67
2022/11/26 09:30:49;;;;;;;20.27;6.35;;;6.30;99.90;;;;;;5016059;28;20030;-67
2022/11/26 09:33:14;;;;;;;11.95;5.22;;;6.20;99.90;;;;;;5031331;28;20128;-67
2022/11/26 09:35:40;;;;;;;13.20;5.35;;;6.20;99.90;;;;;;5032167;28;20026;-67
2022/11/26 09:38:06;;;;;;;13.75;5.18;;;6.40;99.90;;;;;;5014634;28;20495;-68
2022/11/26 09:40:45;;;;;;;13.90;6.53;;;6.40;99.90;;;;;;5015868;28;20022;-68
2022/11/26 09:43:35;;;;;;;10.32;5.50;;;6.50;99.90;;;;;;5014659;28;20029;-67
2022/11/26 09:46:02;;;;;;;12.32;5.72;;;6.50;99.90;;;;;;5014582;28;20084;-67
2022/11/26 09:48:31;;;;;;;12.13;5.53;;;6.60;99.90;;;;;;5014410;28;20022;-67
2022/11/26 09:51:06;;;;;;;14.15;6.13;;;6.70;99.90;;;;;;5015030;28;20091;-67
2022/11/26 09:53:39;;;;;;;17.33;6.82;;;6.70;99.90;;;;;;5015262;28;20030;-67
2022/11/26 09:56:12;;;;;;;18.95;8.32;;;6.80;99.90;;;;;;5015714;28;20022;-66
2022/11/26 09:58:56;;;;;;;16.70;7.05;;;6.80;99.90;;;;;;5014201;28;20037;-66
2022/11/26 10:01:23;;;;;;;16.33;6.18;;;6.90;99.90;;;;;;5015461;28;20022;-67
2022/11/26 10:03:50;;;;;;;10.82;5.70;;;6.90;99.90;;;;;;5014330;28;20026;-67
2022/11/26 10:07:04;;;;;;;15.80;7.07;;;6.90;99.90;;;;;;5015841;28;20045;-67
2022/11/26 10:09:42;;;;;;;13.93;5.57;;;6.90;99.90;;;;;;4955262;28;20032;-66
2022/11/26 10:12:19;;;;;;;12.15;5.75;;;6.90;99.90;;;;;;4954566;29;20446;-66
2022/11/26 10:15:23;;;;;;;19.08;5.97;;;7.10;99.90;;;;;;4955098;29;20043;-66
2022/11/26 10:18:24;;;;;;;15.10;5.57;;;7.00;99.90;;;;;;4898171;29;20488;-67
2022/11/26 10:21:14;;;;;;;10.80;5.40;;;7.10;99.90;;;;;;4897937;29;20044;-67
2022/11/26 10:23:44;;;;;;;11.30;5.10;;;7.20;99.90;;;;;;4898336;29;20083;-67
2022/11/26 10:26:19;;;;;;;12.13;5.40;;;7.20;99.90;;;;;;4898271;29;20024;-67
2022/11/26 10:28:47;;;;;;;12.18;6.00;;;7.30;99.90;;;;;;4898100;29;20267;-67
2022/11/26 10:31:25;;;;;;;19.30;6.55;;;7.30;99.90;;;;;;4897591;29;20032;-67
2022/11/26 10:33:57;;;;;;;14.75;5.80;;;7.30;99.90;;;;;;4897509;29;20105;-67
2022/11/26 10:36:24;;;;;;;;;;;7.40;99.90;;;;;;4898265;29;20103;-67
2022/11/26 10:38:54;;;;;;;13.57;5.68;;;7.50;99.90;;;;;;4897430;29;19914;-68
2022/11/26 10:41:22;;;;;;;20.77;7.03;;;7.60;99.90;;;;;;4973958;28;20173;-67
2022/11/26 10:43:48;;;;;;;16.88;6.93;;;7.70;99.90;;;;;;4973858;28;20553;-68
2022/11/26 10:46:31;;;;;;;25.55;11.85;;;7.70;99.90;;;;;;4973936;28;20150;-67
2022/11/26 10:49:24;;;;;;;17.48;6.05;;;7.60;99.90;;;;;;4973595;28;20035;-68
2022/11/26 10:51:53;;;;;;;14.63;7.22;;;7.70;99.90;;;;;;4973543;28;20122;-67
2022/11/26 10:54:30;;;;;;;22.13;7.03;;;7.70;99.90;;;;;;5009465;28;20091;-67
2022/11/26 10:57:02;;;;;;;24.27;9.13;;;7.60;99.90;;;;;;5014568;28;20021;-67
2022/11/26 10:59:36;;;;;;;21.63;7.15;;;7.70;99.90;;;;;;5013485;28;20144;-67
2022/11/26 11:02:19;;;;;;;15.23;6.88;;;7.70;99.90;;;;;;5014705;28;20026;-68
2022/11/26 11:04:48;;;;;;;14.95;6.25;;;7.70;99.90;;;;;;5014560;28;20034;-68
2022/11/26 11:07:32;;;;;;;17.25;6.30;;;7.90;99.90;;;;;;5029510;28;20026;-68
2022/11/26 11:10:07;;;;;;;17.60;6.38;;;7.90;99.90;;;;;;5014257;28;20058;-68
2022/11/26 11:12:33;;;;;;;17.85;5.38;;;7.90;99.90;;;;;;5014500;28;20026;-68
2022/11/26 11:15:20;;;;;;;19.83;7.10;;;7.90;99.90;;;;;;5012706;28;20030;-68
2022/11/26 11:17:57;;;;;;;43.15;17.45;;;7.90;99.90;;;;;;5014303;28;20026;-68
2022/11/26 11:20:32;;;;;;;22.80;7.90;;;7.90;99.90;;;;;;5013539;28;20064;-68
2022/11/26 11:23:17;;;;;;;12.98;6.93;;;7.90;99.90;;;;;;5014414;28;20096;-68
2022/11/26 11:26:03;;;;;;;11.23;6.53;;;7.90;99.90;;;;;;5014045;28;20026;-68
2022/11/26 11:28:32;;;;;;;19.83;6.72;;;7.90;99.90;;;;;;5013481;28;20392;-68
2022/11/26 11:31:11;;;;;;;15.82;5.45;;;7.90;99.90;;;;;;5013587;28;20144;-68
2022/11/26 11:33:37;;;;;;;18.42;5.88;;;7.80;99.90;;;;;;5013966;28;20030;-68
2022/11/26 11:36:14;;;;;;;12.32;5.30;;;7.90;99.90;;;;;;5014144;28;20014;-68
2022/11/26 11:38:50;;;;;;;13.48;6.03;;;7.90;99.90;;;;;;5013676;28;20029;-68
2022/11/26 11:41:44;;;;;;;13.38;5.53;;;7.90;99.90;;;;;;5014684;28;20036;-68
2022/11/26 11:44:42;;;;;;;14.73;6.32;;;7.90;99.90;;;;;;5007103;28;20069;-67
2022/11/26 11:47:07;;;;;;;13.32;5.80;;;7.80;99.90;;;;;;5014028;28;20037;-68
2022/11/26 11:50:01;;;;;;;13.38;5.65;;;7.70;99.90;;;;;;5013647;28;20037;-68
2022/11/26 11:52:44;;;;;;;11.80;5.07;;;7.70;99.90;;;;;;5012941;28;20432;-68
2022/11/26 11:55:28;;;;;;;14.40;5.18;;;7.60;99.90;;;;;;5013581;28;20029;-68
2022/11/26 11:58:01;;;;;;;14.85;5.10;;;7.50;99.90;;;;;;5013976;28;20022;-68
2022/11/26 12:01:19;;;;;;;16.52;6.18;;;7.60;99.90;;;;;;5012443;28;20088;-67
2022/11/26 12:04:01;;;;;;;12.65;5.43;;;7.70;99.90;;;;;;4937238;29;20054;-68
2022/11/26 12:07:08;;;;;;;11.80;5.65;;;7.60;99.90;;;;;;4953560;29;20415;-68
2022/11/26 12:09:53;;;;;;;10.07;5.88;;;7.50;99.90;;;;;;4905325;29;20122;-68
2022/11/26 12:12:31;;;;;;;14.13;5.82;;;7.50;99.90;;;;;;4953376;29;20055;-68
2022/11/26 12:15:12;;;;;;;12.70;5.22;;;7.50;99.90;;;;;;4937655;29;20035;-68
2022/11/26 12:17:45;;;;;;;16.45;4.63;;;7.60;99.90;;;;;;4953298;29;20031;-68
2022/11/26 12:20:38;;;;;;;12.05;5.28;;;7.70;99.90;;;;;;4952926;29;20028;-68
2022/11/26 12:23:22;;;;;;;13.07;5.95;;;7.60;99.90;;;;;;4937596;29;20027;-68
2022/11/26 12:25:56;;;;;;;12.82;5.63;;;7.60;99.90;;;;;;4952976;29;20031;-68
2022/11/26 12:28:25;;;;;;;21.00;8.23;;;7.70;99.90;;;;;;4937169;29;20122;-68
2022/11/26 12:31:00;;;;;;;13.27;6.03;;;7.60;99.90;;;;;;4936843;29;20023;-68
2022/11/26 12:33:35;;;;;;;16.05;7.38;;;7.60;99.90;;;;;;4956962;28;20037;-68
2022/11/26 12:36:21;;;;;;;14.10;6.22;;;7.60;99.90;;;;;;5016853;28;20025;-68
2022/11/26 12:38:52;;;;;;;16.83;6.72;;;7.60;99.90;;;;;;5017243;28;20029;-68
2022/11/26 12:41:20;;;;;;;12.88;5.85;;;7.70;99.90;;;;;;5017264;28;20018;-68
2022/11/26 12:44:06;;;;;;;23.55;6.65;;;7.60;99.90;;;;;;5015739;28;20061;-68
2022/11/26 12:46:42;;;;;;;16.27;6.72;;;7.70;99.90;;;;;;5017090;28;20088;-68
2022/11/26 12:49:29;;;;;;;23.70;6.45;;;7.80;99.90;;;;;;5015651;28;20045;-68
2022/11/26 12:52:21;;;;;;;24.50;10.25;;;7.70;99.90;;;;;;5017206;28;20033;-68
2022/11/26 12:55:00;;;;;;;19.20;7.93;;;7.70;99.90;;;;;;5015726;28;20026;-68
2022/11/26 12:57:51;;;;;;;24.80;8.45;;;7.70;99.90;;;;;;5016773;28;20026;-68
2022/11/26 13:00:26;;;;;;;13.38;6.22;;;7.90;99.90;;;;;;5011134;28;20045;-68
2022/11/26 13:02:52;;;;;;;12.77;6.15;;;7.80;99.90;;;;;;5015474;28;20037;-68